createdAt,value
2019-05-18T00:01:17.779Z,27.17
2019-05-18T00:03:43.559Z,27.00
2019-05-18T00:06:09.400Z,26.73
2019-05-18T00:08:35.191Z,27.70
2019-05-18T00:11:01.277Z,29.93
2019-05-18T00:13:27.188Z,27.63
2019-05-18T00:15:53.312Z,29.73
2019-05-18T00:18:19.210Z,31.13
2019-05-18T00:20:45.061Z,30.43
2019-05-18T00:23:11.988Z,29.67
2019-05-18T00:25:37.866Z,28.40
2019-05-18T00:28:03.773Z,30.70
2019-05-18T00:30:29.601Z,31.20
2019-05-18T00:32:55.389Z,29.33
2019-05-18T00:35:21.184Z,31.77
2019-05-18T00:37:46.980Z,30.30
2019-05-18T00:40:13.253Z,31.17
2019-05-18T00:42:39.089Z,30.33
2019-05-18T00:45:05.588Z,31.77
2019-05-18T00:47:40.929Z,30.43
2019-05-18T00:49:59.798Z,29.47
2019-05-18T00:52:25.565Z,31.57
2019-05-18T00:54:51.372Z,29.33
2019-05-18T00:57:17.369Z,29.87
2019-05-18T00:59:43.144Z,29.57
2019-05-18T01:02:08.936Z,31.37
2019-05-18T01:04:36.571Z,30.73
2019-05-18T01:07:02.605Z,30.33
2019-05-18T01:09:28.413Z,29.87
2019-05-18T01:11:54.210Z,31.27
2019-05-18T01:14:20.001Z,29.80
2019-05-18T01:16:46.109Z,29.47
2019-05-18T01:19:12.149Z,28.90
2019-05-18T01:21:37.940Z,29.47
2019-05-18T01:24:04.019Z,30.80
2019-05-18T01:26:29.803Z,28.87
2019-05-18T01:28:59.392Z,28.77
2019-05-18T01:31:25.194Z,29.70
2019-05-18T01:33:50.973Z,29.13
2019-05-18T01:36:16.766Z,30.40
2019-05-18T01:38:42.544Z,28.60
2019-05-18T01:41:08.337Z,28.53
2019-05-18T01:43:34.126Z,28.90
2019-05-18T01:45:59.926Z,28.43
2019-05-18T01:48:25.704Z,29.87
2019-05-18T01:50:51.498Z,29.10
2019-05-18T01:53:17.281Z,28.60
2019-05-18T01:55:43.080Z,28.77
2019-05-18T01:58:08.858Z,31.57
2019-05-18T02:00:34.749Z,29.83
2019-05-18T02:03:00.529Z,28.77
2019-05-18T02:05:26.336Z,30.50
2019-05-18T02:07:52.107Z,29.07
2019-05-18T02:10:17.992Z,30.27
2019-05-18T02:12:43.797Z,27.83
2019-05-18T02:15:10.189Z,28.57
2019-05-18T02:17:35.987Z,27.50
2019-05-18T02:20:01.973Z,29.77
2019-05-18T02:22:27.770Z,31.13
2019-05-18T02:24:53.560Z,30.73
2019-05-18T02:27:19.377Z,29.33
2019-05-18T02:29:45.160Z,32.23
2019-05-18T02:32:10.965Z,29.83
2019-05-18T02:34:36.763Z,31.03
2019-05-18T02:37:02.669Z,30.70
2019-05-18T02:39:28.738Z,30.80
2019-05-18T02:41:54.541Z,32.23
2019-05-18T02:44:20.337Z,31.70
2019-05-18T02:46:46.128Z,31.87
2019-05-18T02:49:11.911Z,30.57
2019-05-18T02:51:37.709Z,34.30
2019-05-18T02:54:03.491Z,31.83
2019-05-18T02:56:29.284Z,32.63
2019-05-18T02:58:55.066Z,32.33
2019-05-18T03:01:20.876Z,32.60
2019-05-18T03:03:46.654Z,34.90
2019-05-18T03:06:12.450Z,33.23
2019-05-18T03:08:38.241Z,37.03
2019-05-18T03:11:04.029Z,32.37
2019-05-18T03:13:29.842Z,35.20
2019-05-18T03:15:55.625Z,35.00
2019-05-18T03:18:21.427Z,33.67
2019-05-18T03:20:47.208Z,37.30
2019-05-18T03:23:12.996Z,35.27
2019-05-18T03:25:38.885Z,32.03
2019-05-18T03:28:04.683Z,34.23
2019-05-18T03:30:30.464Z,33.40
2019-05-18T03:32:56.262Z,35.30
2019-05-18T03:35:22.081Z,31.73
2019-05-18T03:37:47.928Z,34.30
2019-05-18T03:40:14.111Z,35.63
2019-05-18T03:42:39.914Z,34.17
2019-05-18T03:45:06.893Z,32.60
2019-05-18T03:47:32.806Z,32.57
2019-05-18T03:49:58.582Z,33.87
2019-05-18T03:52:24.356Z,35.67
2019-05-18T03:54:50.147Z,34.43
2019-05-18T03:57:16.141Z,34.60
2019-05-18T03:59:41.940Z,33.10
2019-05-18T04:02:07.726Z,32.90
2019-05-18T04:04:33.533Z,34.23
2019-05-18T04:06:59.319Z,32.30
2019-05-18T04:09:25.123Z,33.00
2019-05-18T04:11:50.923Z,34.63
2019-05-18T04:14:17.475Z,32.40
2019-05-18T04:16:43.275Z,32.47
2019-05-18T04:19:09.069Z,31.73
2019-05-18T04:21:34.854Z,31.53
2019-05-18T04:24:00.663Z,31.23
2019-05-18T04:26:26.446Z,31.43
2019-05-18T04:28:52.237Z,31.13
2019-05-18T04:31:18.023Z,31.57
2019-05-18T04:33:43.829Z,29.60
2019-05-18T04:36:09.611Z,29.07
2019-05-18T04:38:35.402Z,28.40
2019-05-18T04:41:01.187Z,28.27
2019-05-18T04:43:26.977Z,28.67
2019-05-18T04:45:52.786Z,27.67
2019-05-18T04:48:18.573Z,27.17
2019-05-18T04:50:44.365Z,28.50
2019-05-18T04:53:10.151Z,26.17
2019-05-18T04:55:36.017Z,28.70
2019-05-18T04:58:01.835Z,26.60
2019-05-18T05:00:27.630Z,26.93
2019-05-18T05:02:53.444Z,27.00
2019-05-18T05:05:19.255Z,25.97
2019-05-18T05:07:45.056Z,26.63
2019-05-18T05:10:11.045Z,26.33
2019-05-18T05:12:36.850Z,25.20
2019-05-18T05:15:03.143Z,25.23
2019-05-18T05:17:28.931Z,25.37
2019-05-18T05:19:54.725Z,25.60
2019-05-18T05:22:20.509Z,24.10
2019-05-18T05:24:46.306Z,24.93
2019-05-18T05:27:12.107Z,25.53
2019-05-18T05:29:37.903Z,24.97
2019-05-18T05:32:03.686Z,25.27
2019-05-18T05:34:29.771Z,25.87
2019-05-18T05:36:55.564Z,25.90
2019-05-18T05:39:21.342Z,26.40
2019-05-18T05:41:47.142Z,25.90
2019-05-18T05:44:12.925Z,26.93
2019-05-18T05:46:38.723Z,27.67
2019-05-18T05:49:04.505Z,26.60
2019-05-18T05:51:30.306Z,26.73
2019-05-18T05:53:56.092Z,28.43
2019-05-18T05:56:21.887Z,27.50
2019-05-18T05:58:47.695Z,26.43
2019-05-18T06:01:13.475Z,26.30
2019-05-18T06:03:39.262Z,26.37
2019-05-18T06:06:05.061Z,25.50
2019-05-18T06:08:30.856Z,26.63
2019-05-18T06:10:56.676Z,26.53
2019-05-18T06:13:22.482Z,26.57
2019-05-18T06:15:48.280Z,26.50
2019-05-18T06:18:14.072Z,26.60
2019-05-18T06:20:51.047Z,25.50
2019-05-18T06:23:07.553Z,25.77
2019-05-18T06:25:34.357Z,26.10
2019-05-18T06:28:00.428Z,26.47
2019-05-18T06:30:26.216Z,25.87
2019-05-18T06:32:52.009Z,24.83
2019-05-18T06:35:17.800Z,26.10
2019-05-18T06:37:43.596Z,25.37
2019-05-18T06:40:09.482Z,26.40
2019-05-18T06:42:35.307Z,25.40
2019-05-18T06:45:01.262Z,27.47
2019-05-18T06:47:28.462Z,25.53
2019-05-18T06:49:54.350Z,25.73
2019-05-18T06:52:20.150Z,24.40
2019-05-18T06:54:45.928Z,25.47
2019-05-18T06:57:11.833Z,25.37
2019-05-18T06:59:37.931Z,26.07
2019-05-18T07:02:03.737Z,25.20
2019-05-18T07:04:29.520Z,24.67
2019-05-18T07:06:55.324Z,24.07
2019-05-18T07:09:21.113Z,24.83
2019-05-18T07:11:46.922Z,24.37
2019-05-18T07:14:24.857Z,24.70
2019-05-18T07:16:40.418Z,24.97
2019-05-18T07:19:06.212Z,22.87
2019-05-18T07:21:31.997Z,23.80
2019-05-18T07:23:57.794Z,23.50
2019-05-18T07:26:23.671Z,23.20
2019-05-18T07:28:49.465Z,23.27
2019-05-18T07:31:15.238Z,21.93
2019-05-18T07:33:41.048Z,21.33
2019-05-18T07:36:06.832Z,23.00
2019-05-18T07:38:32.625Z,21.67
2019-05-18T07:40:58.420Z,19.93
2019-05-18T07:43:24.211Z,21.77
2019-05-18T07:45:50.084Z,20.70
2019-05-18T07:48:16.230Z,21.17
2019-05-18T07:50:42.541Z,21.30
2019-05-18T07:53:08.339Z,21.07
2019-05-18T07:55:34.177Z,21.20
2019-05-18T07:57:59.982Z,22.70
2019-05-18T08:00:26.197Z,20.57
2019-05-18T08:02:52.318Z,21.63
2019-05-18T08:05:18.458Z,21.77
2019-05-18T08:07:44.617Z,21.27
2019-05-18T08:10:10.826Z,21.63
2019-05-18T08:12:36.623Z,20.87
2019-05-18T08:15:08.486Z,19.63
2019-05-18T08:17:34.282Z,20.53
2019-05-18T08:20:00.065Z,21.53
2019-05-18T08:22:25.845Z,21.00
2019-05-18T08:24:51.743Z,20.57
2019-05-18T08:27:17.524Z,21.17
2019-05-18T08:29:43.322Z,22.03
2019-05-18T08:32:09.097Z,21.27
2019-05-18T08:34:34.892Z,22.00
2019-05-18T08:37:00.674Z,21.07
2019-05-18T08:39:26.504Z,21.00
2019-05-18T08:41:52.298Z,21.43
2019-05-18T08:44:18.082Z,21.07
2019-05-18T08:46:43.876Z,20.70
2019-05-18T08:49:09.653Z,20.53
2019-05-18T08:51:35.443Z,20.87
2019-05-18T08:54:01.230Z,21.47
2019-05-18T08:56:27.031Z,21.37
2019-05-18T08:58:53.019Z,20.83
2019-05-18T09:01:18.820Z,22.43
2019-05-18T09:03:44.607Z,20.93
2019-05-18T09:06:10.393Z,21.80
2019-05-18T09:08:36.184Z,22.97
2019-05-18T09:11:02.090Z,21.83
2019-05-18T09:13:29.284Z,23.07
2019-05-18T09:15:55.075Z,24.60
2019-05-18T09:18:20.881Z,22.73
2019-05-18T09:20:46.667Z,21.80
2019-05-18T09:23:12.451Z,21.50
2019-05-18T09:25:38.409Z,23.13
2019-05-18T09:28:04.184Z,21.87
2019-05-18T09:30:29.985Z,23.13
2019-05-18T09:32:55.779Z,21.70
2019-05-18T09:35:21.557Z,22.13
2019-05-18T09:37:47.353Z,21.63
2019-05-18T09:40:13.236Z,21.93
2019-05-18T09:42:39.038Z,20.73
2019-05-18T09:45:06.217Z,20.03
2019-05-18T09:47:32.011Z,20.60
2019-05-18T09:49:57.795Z,20.27
2019-05-18T09:52:42.157Z,19.90
2019-05-18T09:54:51.293Z,20.57
2019-05-18T09:57:17.089Z,21.27
2019-05-18T09:59:42.872Z,20.73
2019-05-18T10:02:08.661Z,20.20
2019-05-18T10:04:34.455Z,18.53
2019-05-18T10:07:00.243Z,18.53
2019-05-18T10:09:26.093Z,21.40
2019-05-18T10:11:51.974Z,20.83
2019-05-18T10:14:17.754Z,21.50
2019-05-18T10:16:43.567Z,20.77
2019-05-18T10:19:09.353Z,19.60
2019-05-18T10:21:35.129Z,17.93
2019-05-18T10:24:00.924Z,18.47
2019-05-18T10:26:26.698Z,16.60
2019-05-18T10:28:52.497Z,16.63
2019-05-18T10:31:18.278Z,17.07
2019-05-18T10:33:44.074Z,16.83
2019-05-18T10:36:11.642Z,18.57
2019-05-18T10:38:37.564Z,16.50
2019-05-18T10:41:03.350Z,15.40
2019-05-18T10:43:29.160Z,19.13
2019-05-18T10:45:54.933Z,17.63
2019-05-18T10:48:20.731Z,14.90
2019-05-18T10:50:46.518Z,15.27
2019-05-18T10:53:27.523Z,14.10
2019-05-18T10:55:39.995Z,20.73
2019-05-18T10:58:05.801Z,20.30
2019-05-18T11:00:31.683Z,17.27
2019-05-18T11:02:57.476Z,15.33
2019-05-18T11:05:23.263Z,14.30
2019-05-18T11:07:49.668Z,16.73
2019-05-18T11:10:15.634Z,17.27
2019-05-18T11:12:41.447Z,18.50
2019-05-18T11:15:07.738Z,13.97
2019-05-18T11:17:33.598Z,13.80
2019-05-18T11:19:59.428Z,15.57
2019-05-18T11:22:25.206Z,13.20
2019-05-18T11:24:50.996Z,14.67
2019-05-18T11:27:16.789Z,12.87
2019-05-18T11:29:42.581Z,12.60
2019-05-18T11:32:08.375Z,12.97
2019-05-18T11:34:34.161Z,13.80
2019-05-18T11:37:03.135Z,13.57
2019-05-18T11:39:27.629Z,13.43
2019-05-18T11:41:53.412Z,13.80
2019-05-18T11:44:19.204Z,13.67
2019-05-18T11:46:44.991Z,15.07
2019-05-18T11:49:10.784Z,15.23
2019-05-18T11:51:36.568Z,15.57
2019-05-18T11:54:02.501Z,16.60
2019-05-18T11:56:28.275Z,16.57
2019-05-18T11:58:54.070Z,17.83
2019-05-18T12:01:19.861Z,15.80
2019-05-18T12:03:45.659Z,16.37
2019-05-18T12:06:11.453Z,16.50
2019-05-18T12:08:37.383Z,15.97
2019-05-18T12:11:03.274Z,17.00
2019-05-18T12:13:29.064Z,16.70
2019-05-18T12:15:54.857Z,16.53
2019-05-18T12:18:20.645Z,17.10
2019-05-18T12:20:46.442Z,16.00
2019-05-18T12:23:12.236Z,16.10
2019-05-18T12:25:38.029Z,17.37
2019-05-18T12:28:03.897Z,16.73
2019-05-18T12:30:29.724Z,18.50
2019-05-18T12:32:55.508Z,17.63
2019-05-18T12:35:21.300Z,17.90
2019-05-18T12:37:47.097Z,16.77
2019-05-18T12:40:16.288Z,15.83
2019-05-18T12:42:42.370Z,14.87
2019-05-18T12:45:08.363Z,16.57
2019-05-18T12:47:34.148Z,15.63
2019-05-18T12:49:59.986Z,16.37
2019-05-18T12:52:25.732Z,16.17
2019-05-18T12:54:51.527Z,15.63
2019-05-18T12:57:17.324Z,17.20
2019-05-18T12:59:43.115Z,16.80
2019-05-18T13:02:10.488Z,15.53
2019-05-18T13:04:36.289Z,14.60
2019-05-18T13:07:02.083Z,14.67
2019-05-18T13:09:27.864Z,14.20
2019-05-18T13:11:53.674Z,13.10
2019-05-18T13:14:19.455Z,14.10
2019-05-18T13:16:45.244Z,14.20
2019-05-18T13:19:11.032Z,14.70
2019-05-18T13:21:36.833Z,14.10
2019-05-18T13:24:02.619Z,15.07
2019-05-18T13:26:28.397Z,15.10
2019-05-18T13:28:54.174Z,16.77
2019-05-18T13:31:19.970Z,16.87
2019-05-18T13:33:45.749Z,15.43
2019-05-18T13:36:11.549Z,16.23
2019-05-18T13:38:37.412Z,15.43
2019-05-18T13:41:03.231Z,15.63
2019-05-18T13:43:29.110Z,16.67
2019-05-18T13:45:55.001Z,14.33
2019-05-18T13:48:20.774Z,13.97
2019-05-18T13:50:46.553Z,12.63
2019-05-18T13:53:12.354Z,12.77
2019-05-18T13:55:38.136Z,14.87
2019-05-18T13:58:03.961Z,15.87
2019-05-18T14:00:29.751Z,16.27
2019-05-18T14:02:55.555Z,16.20
2019-05-18T14:05:21.335Z,17.63
2019-05-18T14:07:47.132Z,17.17
2019-05-18T14:10:13.325Z,17.20
2019-05-18T14:12:39.171Z,17.23
2019-05-18T14:15:05.505Z,15.97
2019-05-18T14:17:31.289Z,17.17
2019-05-18T14:19:57.076Z,16.20
2019-05-18T14:22:22.870Z,16.80
2019-05-18T14:24:48.650Z,16.83
2019-05-18T14:27:14.458Z,16.80
2019-05-18T14:29:40.223Z,17.03
2019-05-18T14:32:06.015Z,17.23
2019-05-18T14:34:31.859Z,17.37
2019-05-18T14:36:58.206Z,16.43
2019-05-18T14:39:25.061Z,16.93
2019-05-18T14:41:50.836Z,17.37
2019-05-18T14:44:16.628Z,17.47
2019-05-18T14:46:42.412Z,17.83
2019-05-18T14:49:08.218Z,17.40
2019-05-18T14:51:34.075Z,16.10
2019-05-18T14:54:01.227Z,16.87
2019-05-18T14:56:27.024Z,16.37
2019-05-18T14:58:52.823Z,17.17
2019-05-18T15:01:18.612Z,16.13
2019-05-18T15:03:44.405Z,17.03
2019-05-18T15:06:10.183Z,15.67
2019-05-18T15:08:35.988Z,15.77
2019-05-18T15:11:01.767Z,16.00
2019-05-18T15:13:27.577Z,15.07
2019-05-18T15:15:53.356Z,15.43
2019-05-18T15:18:19.157Z,15.27
2019-05-18T15:20:44.943Z,14.70
2019-05-18T15:23:10.779Z,14.23
2019-05-18T15:25:49.653Z,14.17
2019-05-18T15:28:04.252Z,13.30
2019-05-18T15:30:30.047Z,13.87
2019-05-18T15:32:55.828Z,13.77
2019-05-18T15:35:21.624Z,13.70
2019-05-18T15:37:47.407Z,14.40
2019-05-18T15:40:13.310Z,14.27
2019-05-18T15:42:39.092Z,16.20
2019-05-18T15:45:05.324Z,13.60
2019-05-18T15:47:31.095Z,14.20
2019-05-18T15:49:56.903Z,13.53
2019-05-18T15:52:22.710Z,12.90
2019-05-18T15:54:48.632Z,13.27
2019-05-18T15:57:14.432Z,13.57
2019-05-18T15:59:40.221Z,13.30
2019-05-18T16:02:06.694Z,13.57
2019-05-18T16:04:32.628Z,13.50
2019-05-18T16:06:58.418Z,13.13
2019-05-18T16:09:24.198Z,13.23
2019-05-18T16:11:50.092Z,12.90
2019-05-18T16:14:15.889Z,13.60
2019-05-18T16:16:41.774Z,13.80
2019-05-18T16:19:07.547Z,13.57
2019-05-18T16:21:33.347Z,13.70
2019-05-18T16:23:59.134Z,14.00
2019-05-18T16:26:24.936Z,13.70
2019-05-18T16:28:50.721Z,13.37
2019-05-18T16:31:16.520Z,14.30
2019-05-18T16:33:42.303Z,14.53
2019-05-18T16:36:08.114Z,15.00
2019-05-18T16:38:33.899Z,14.93
2019-05-18T16:40:59.716Z,13.97
2019-05-18T16:43:25.498Z,15.17
2019-05-18T16:45:51.298Z,15.57
2019-05-18T16:48:17.077Z,15.10
2019-05-18T16:50:42.866Z,15.33
2019-05-18T16:53:08.654Z,15.80
2019-05-18T16:55:34.464Z,15.27
2019-05-18T16:58:00.249Z,15.80
2019-05-18T17:00:26.056Z,15.40
2019-05-18T17:02:51.868Z,15.73
2019-05-18T17:05:17.654Z,15.47
2019-05-18T17:07:43.451Z,15.17
2019-05-18T17:10:10.244Z,15.57
2019-05-18T17:12:36.148Z,16.13
2019-05-18T17:15:04.227Z,15.90
2019-05-18T17:17:30.025Z,16.03
2019-05-18T17:19:55.819Z,16.27
2019-05-18T17:22:21.721Z,15.33
2019-05-18T17:24:47.510Z,15.80
2019-05-18T17:27:13.303Z,16.10
2019-05-18T17:29:39.084Z,15.60
2019-05-18T17:32:04.885Z,14.30
2019-05-18T17:34:30.693Z,15.93
2019-05-18T17:36:56.477Z,14.93
2019-05-18T17:39:22.312Z,14.70
2019-05-18T17:41:48.874Z,15.10
2019-05-18T17:44:14.726Z,15.63
2019-05-18T17:46:40.465Z,14.70
2019-05-18T17:49:06.256Z,14.47
2019-05-18T17:51:32.036Z,14.40
2019-05-18T17:53:57.831Z,15.70
2019-05-18T17:56:23.618Z,15.93
2019-05-18T17:58:49.414Z,15.20
2019-05-18T18:01:15.199Z,15.33
2019-05-18T18:03:40.988Z,15.27
2019-05-18T18:06:06.774Z,15.23
2019-05-18T18:08:32.570Z,16.03
2019-05-18T18:10:58.352Z,15.47
2019-05-18T18:13:24.156Z,15.50
2019-05-18T18:15:49.941Z,15.20
2019-05-18T18:18:15.741Z,16.50
2019-05-18T18:20:41.530Z,15.00
2019-05-18T18:23:07.307Z,14.60
2019-05-18T18:25:33.105Z,15.40
2019-05-18T18:27:58.886Z,15.43
2019-05-18T18:30:24.680Z,15.37
2019-05-18T18:32:50.460Z,14.83
2019-05-18T18:35:16.247Z,15.97
2019-05-18T18:37:42.022Z,17.40
2019-05-18T18:40:08.029Z,16.70
2019-05-18T18:42:33.821Z,18.13
2019-05-18T18:44:59.612Z,17.27
2019-05-18T18:47:25.389Z,18.73
2019-05-18T18:49:51.181Z,18.67
2019-05-18T18:52:16.972Z,19.33
2019-05-18T18:54:42.770Z,19.17
2019-05-18T18:57:08.554Z,20.43
2019-05-18T18:59:34.343Z,20.07
2019-05-18T19:02:00.123Z,19.63
2019-05-18T19:04:25.928Z,19.03
2019-05-18T19:06:51.699Z,19.43
2019-05-18T19:09:17.481Z,20.23
2019-05-18T19:11:43.266Z,19.00
2019-05-18T19:14:09.079Z,20.37
2019-05-18T19:16:34.880Z,20.50
2019-05-18T19:19:00.656Z,19.27
2019-05-18T19:21:26.457Z,19.43
2019-05-18T19:23:52.258Z,19.80
2019-05-18T19:26:18.047Z,19.87
2019-05-18T19:28:43.825Z,19.40
2019-05-18T19:31:09.619Z,19.73
2019-05-18T19:33:35.408Z,20.30
2019-05-18T19:36:01.218Z,20.50
2019-05-18T19:38:27.003Z,20.83
2019-05-18T19:40:52.796Z,20.27
2019-05-18T19:43:18.579Z,19.80
2019-05-18T19:45:44.407Z,20.23
2019-05-18T19:48:10.159Z,20.47
2019-05-18T19:50:35.948Z,21.30
2019-05-18T19:53:01.730Z,21.97
2019-05-18T19:55:27.538Z,20.70
2019-05-18T19:57:53.320Z,20.93
2019-05-18T20:00:19.520Z,21.63
2019-05-18T20:02:45.315Z,22.20
2019-05-18T20:05:11.401Z,23.13
2019-05-18T20:07:37.200Z,22.67
2019-05-18T20:10:07.049Z,24.20
2019-05-18T20:12:32.916Z,23.20
2019-05-18T20:14:58.715Z,23.40
2019-05-18T20:17:24.522Z,24.23
2019-05-18T20:19:50.307Z,24.57
2019-05-18T20:22:16.096Z,25.40
2019-05-18T20:24:41.883Z,25.10
2019-05-18T20:27:07.675Z,24.43
2019-05-18T20:29:33.457Z,25.43
2019-05-18T20:31:59.278Z,27.10
2019-05-18T20:34:25.065Z,26.03
2019-05-18T20:36:50.865Z,25.97
2019-05-18T20:39:16.643Z,26.07
2019-05-18T20:41:42.440Z,26.17
2019-05-18T20:44:08.225Z,25.40
2019-05-18T20:46:34.027Z,29.27
2019-05-18T20:48:59.829Z,28.53
2019-05-18T20:51:25.616Z,28.23
2019-05-18T20:53:51.407Z,27.87
2019-05-18T20:56:17.201Z,28.57
2019-05-18T20:58:43.001Z,28.33
2019-05-18T21:01:08.796Z,28.43
2019-05-18T21:03:34.598Z,29.43
2019-05-18T21:06:00.383Z,31.03
2019-05-18T21:08:26.190Z,30.00
2019-05-18T21:10:51.969Z,30.30
2019-05-18T21:13:17.806Z,30.93
2019-05-18T21:15:44.089Z,30.83
2019-05-18T21:18:09.882Z,31.53
2019-05-18T21:20:35.664Z,32.40
2019-05-18T21:23:01.444Z,31.80
2019-05-18T21:25:27.268Z,34.17
2019-05-18T21:27:53.053Z,33.40
2019-05-18T21:30:18.852Z,33.53
2019-05-18T21:32:44.651Z,33.13
2019-05-18T21:35:10.438Z,33.50
2019-05-18T21:37:36.227Z,34.00
2019-05-18T21:40:03.624Z,34.13
2019-05-18T21:42:29.422Z,34.07
2019-05-18T21:44:55.205Z,34.20
2019-05-18T21:47:20.993Z,35.57
2019-05-18T21:49:46.800Z,34.87
2019-05-18T21:52:12.585Z,35.93
2019-05-18T21:54:38.380Z,36.10
2019-05-18T21:57:04.179Z,33.87
2019-05-18T21:59:29.973Z,35.77
2019-05-18T22:01:55.756Z,36.83
2019-05-18T22:04:21.549Z,38.07
2019-05-18T22:06:47.341Z,36.90
2019-05-18T22:09:13.160Z,36.83
2019-05-18T22:11:38.950Z,36.80
2019-05-18T22:14:04.743Z,39.53
2019-05-18T22:16:30.542Z,39.57
2019-05-18T22:18:56.325Z,41.47
2019-05-18T22:21:22.124Z,44.57
2019-05-18T22:23:47.913Z,47.37
2019-05-18T22:26:13.777Z,47.60
2019-05-18T22:28:39.596Z,49.37
2019-05-18T22:31:05.388Z,50.43
2019-05-18T22:33:31.174Z,50.73
2019-05-18T22:35:56.991Z,50.77
2019-05-18T22:38:22.764Z,49.43
2019-05-18T22:40:48.558Z,50.27
2019-05-18T22:43:14.338Z,51.43
2019-05-18T22:45:40.166Z,51.43
2019-05-18T22:48:05.940Z,50.83
2019-05-18T22:50:31.733Z,48.77
2019-05-18T22:52:57.512Z,47.67
2019-05-18T22:55:23.304Z,47.27
2019-05-18T22:57:49.099Z,46.87
2019-05-18T23:00:15.184Z,45.60
2019-05-18T23:02:40.984Z,45.80
2019-05-18T23:05:06.865Z,44.73
2019-05-18T23:07:32.676Z,44.47
2019-05-18T23:09:58.550Z,44.27
2019-05-18T23:12:24.373Z,50.30
2019-05-18T23:14:50.248Z,47.80
2019-05-18T23:17:16.048Z,50.03
2019-05-18T23:19:41.842Z,46.87
2019-05-18T23:22:07.636Z,48.33
2019-05-18T23:24:33.422Z,48.57
2019-05-18T23:26:59.235Z,48.47
2019-05-18T23:29:25.019Z,48.63
2019-05-18T23:31:50.827Z,50.97
2019-05-18T23:34:16.619Z,49.13
2019-05-18T23:36:42.513Z,49.43
2019-05-18T23:39:08.296Z,51.20
2019-05-18T23:41:34.096Z,52.70
2019-05-18T23:43:59.876Z,52.73
2019-05-18T23:46:25.658Z,50.60
2019-05-18T23:48:51.450Z,52.20
2019-05-18T23:51:17.245Z,48.53
2019-05-18T23:53:43.039Z,48.10
2019-05-18T23:56:08.825Z,51.53
2019-05-18T23:58:34.621Z,49.43
